Time;durP1;ratioP1;P1;durP2;ratioP2;P2;SDS_P1;SDS_P2;PMS_P1;PMS_P2;Temp;Humidity;BMP_temperature;BMP_pressure;BME280_temperature;BME280_humidity;BME280_pressure;Samples;Min_cycle;Max_cycle;Signal;HPM_P1;HPM_P2
2021/01/25 00:01:35;;;;;;;0.00;0.00;;;4.00;85.80;;;;;;6222636;23;20005;-83
2021/01/25 00:04:01;;;;;;;0.20;0.20;;;4.00;85.80;;;;;;6222288;23;20507;-84
2021/01/25 00:06:28;;;;;;;0.53;0.37;;;4.00;85.80;;;;;;6222713;23;20015;-88
2021/01/25 00:08:54;;;;;;;0.10;0.10;;;4.00;85.80;;;;;;6221902;23;20003;-89
2021/01/25 00:11:20;;;;;;;0.00;0.00;;;4.00;85.70;;;;;;6250180;23;19996;-89
2021/01/25 00:13:47;;;;;;;0.00;0.00;;;4.00;85.70;;;;;;6225439;23;19996;-89
2021/01/25 00:16:13;;;;;;;0.40;0.30;;;4.00;85.60;;;;;;6223720;23;20004;-90
2021/01/25 00:18:40;;;;;;;0.00;0.00;;;4.00;85.60;;;;;;6222380;23;20255;-90
2021/01/25 00:21:06;;;;;;;0.00;0.00;;;4.00;85.50;;;;;;6249673;23;19993;-90
2021/01/25 00:23:32;;;;;;;0.00;0.00;;;4.00;86.30;;;;;;6223774;23;20000;-89
2021/01/25 00:25:59;;;;;;;0.00;0.00;;;4.00;85.50;;;;;;6250117;23;19992;-90
2021/01/25 00:28:25;;;;;;;6.17;0.57;;;4.00;85.50;;;;;;6249589;23;20392;-90
2021/01/25 00:30:51;;;;;;;0.00;0.00;;;4.00;85.50;;;;;;6250657;23;20299;-90
2021/01/25 00:33:18;;;;;;;0.00;0.00;;;4.00;85.50;;;;;;6199598;23;19997;-90
2021/01/25 00:35:44;;;;;;;0.27;0.27;;;4.00;85.50;;;;;;6250898;23;20383;-90
2021/01/25 00:38:12;;;;;;;0.00;0.00;;;3.90;85.50;;;;;;6224025;23;20003;-89
2021/01/25 00:40:39;;;;;;;0.00;0.00;;;3.90;85.50;;;;;;6222311;23;20007;-91
2021/01/25 00:43:06;;;;;;;0.00;0.00;;;3.90;85.60;;;;;;6222459;23;20256;-89
2021/01/25 00:45:32;;;;;;;0.10;0.10;;;3.90;85.60;;;;;;6196496;23;20001;-90
2021/01/25 00:47:59;;;;;;;0.47;0.47;;;3.90;85.60;;;;;;6219013;23;20019;-90
2021/01/25 00:50:26;;;;;;;0.30;0.10;;;3.80;85.50;;;;;;6193253;23;20387;-90
2021/01/25 00:52:53;;;;;;;0.00;0.00;;;3.90;85.70;;;;;;6218158;23;20000;-91
2021/01/25 00:55:19;;;;;;;0.77;0.00;;;3.80;85.60;;;;;;6192799;23;20389;-90
2021/01/25 00:57:46;;;;;;;0.00;0.00;;;3.80;85.60;;;;;;6191359;23;20372;-90
2021/01/25 01:00:14;;;;;;;4.70;0.23;;;3.80;85.60;;;;;;6217800;23;20026;-90
2021/01/25 01:02:40;;;;;;;0.00;0.00;;;3.80;85.60;;;;;;6218965;23;20040;-90
2021/01/25 01:05:08;;;;;;;0.00;0.00;;;3.80;85.60;;;;;;6217518;23;20023;-90
2021/01/25 01:07:34;;;;;;;0.00;0.00;;;3.80;85.60;;;;;;6217704;23;20009;-89
2021/01/25 01:10:01;;;;;;;0.00;0.00;;;3.80;85.70;;;;;;6220100;23;20007;-90
2021/01/25 01:12:27;;;;;;;0.00;0.00;;;3.80;85.70;;;;;;6196133;23;20001;-92
2021/01/25 01:14:53;;;;;;;0.00;0.00;;;3.70;85.60;;;;;;6193863;23;20007;-89
2021/01/25 01:17:20;;;;;;;0.00;0.00;;;3.80;85.70;;;;;;6218137;23;20008;-90
2021/01/25 01:19:46;;;;;;;0.00;0.00;;;3.70;85.60;;;;;;6219701;23;20241;-91
2021/01/25 01:22:13;;;;;;;0.00;0.00;;;3.70;85.60;;;;;;6219190;23;20003;-91
2021/01/25 01:24:39;;;;;;;0.00;0.00;;;3.70;85.60;;;;;;6218984;23;20365;-90
2021/01/25 01:27:05;;;;;;;0.57;0.10;;;3.70;85.50;;;;;;6220965;23;19997;-91
2021/01/25 01:29:32;;;;;;;0.00;0.00;;;3.70;85.50;;;;;;6220533;23;20008;-89
2021/01/25 01:31:58;;;;;;;0.00;0.00;;;3.70;85.50;;;;;;6219327;23;20008;-91
2021/01/25 01:34:24;;;;;;;0.00;0.00;;;3.70;85.50;;;;;;6220357;23;20008;-90
2021/01/25 01:36:51;;;;;;;0.00;0.00;;;3.70;85.50;;;;;;6218984;23;20007;-91
2021/01/25 01:39:17;;;;;;;0.10;0.10;;;3.70;85.50;;;;;;6217907;23;19993;-89
2021/01/25 01:41:43;;;;;;;0.00;0.00;;;3.70;85.50;;;;;;6217714;23;20495;-89
2021/01/25 01:44:10;;;;;;;0.00;0.00;;;3.70;85.50;;;;;;6194784;23;19997;-88
2021/01/25 01:46:37;;;;;;;0.00;0.00;;;3.70;85.60;;;;;;6218196;23;20164;-91
2021/01/25 01:49:05;;;;;;;0.10;0.00;;;3.60;85.60;;;;;;6168087;23;20012;-89
2021/01/25 01:51:31;;;;;;;0.00;0.00;;;3.60;85.60;;;;;;6192044;23;19996;-85
2021/01/25 01:53:58;;;;;;;0.00;0.00;;;3.60;85.70;;;;;;6190048;23;20015;-84
2021/01/25 01:56:24;;;;;;;0.00;0.00;;;3.60;85.60;;;;;;6194328;23;20028;-88
2021/01/25 01:58:51;;;;;;;0.00;0.00;;;3.60;85.70;;;;;;6193706;23;19997;-89
2021/01/25 02:01:18;;;;;;;0.00;0.00;;;3.50;85.60;;;;;;6197510;23;20384;-90
2021/01/25 02:03:44;;;;;;;0.20;0.10;;;3.50;85.70;;;;;;6224975;23;19997;-90
2021/01/25 02:06:10;;;;;;;0.10;0.00;;;3.50;85.80;;;;;;6194441;23;19992;-86
2021/01/25 02:08:37;;;;;;;0.10;0.03;;;3.50;85.80;;;;;;6191744;23;20004;-84
2021/01/25 02:11:03;;;;;;;0.00;0.00;;;3.40;85.80;;;;;;6192776;23;20000;-90
2021/01/25 02:13:30;;;;;;;0.00;0.00;;;3.40;85.90;;;;;;6193477;23;20100;-92
2021/01/25 02:15:59;;;;;;;0.20;0.10;;;3.40;86.00;;;;;;6190421;23;20004;-89
2021/01/25 02:18:29;;;;;;;0.00;0.00;;;3.40;86.00;;;;;;6191588;23;20001;-88
2021/01/25 02:20:56;;;;;;;0.00;0.00;;;3.40;86.00;;;;;;6167607;23;20008;-90
2021/01/25 02:24:00;;;;;;;0.00;0.00;;;3.40;86.00;;;;;;6193538;23;20000;-90
2021/01/25 02:26:45;;;;;;;0.00;0.00;;;3.40;86.00;;;;;;6219354;23;19997;-88
2021/01/25 02:29:11;;;;;;;0.00;0.00;;;3.40;86.00;;;;;;6217614;23;20001;-90
2021/01/25 02:31:38;;;;;;;1.80;0.10;;;3.30;85.90;;;;;;6192609;23;20009;-89
2021/01/25 02:34:04;;;;;;;0.00;0.00;;;3.30;86.00;;;;;;6192559;23;20015;-88
2021/01/25 02:36:30;;;;;;;0.00;0.00;;;3.30;86.00;;;;;;6192745;23;20388;-90
2021/01/25 02:38:57;;;;;;;1.60;0.10;;;3.30;86.00;;;;;;6191951;23;20254;-89
2021/01/25 02:41:26;;;;;;;0.00;0.00;;;3.30;86.10;;;;;;6193469;23;19997;-90
2021/01/25 02:43:53;;;;;;;0.00;0.00;;;3.30;86.10;;;;;;6193253;23;20380;-89
2021/01/25 02:46:19;;;;;;;9.63;0.20;;;3.30;86.10;;;;;;6191055;23;20269;-91
2021/01/25 02:48:45;;;;;;;0.20;0.10;;;3.20;86.10;;;;;;6178812;23;20627;-91
2021/01/25 02:51:12;;;;;;;0.00;0.00;;;3.20;86.10;;;;;;6218303;23;20001;-90
2021/01/25 02:53:39;;;;;;;0.00;0.00;;;3.20;86.10;;;;;;6218663;23;19996;-88
2021/01/25 02:56:05;;;;;;;0.47;0.10;;;3.20;86.10;;;;;;6196388;23;20001;-90
2021/01/25 02:58:32;;;;;;;0.00;0.00;;;3.20;86.00;;;;;;6217821;23;20016;-89
2021/01/25 03:00:58;;;;;;;0.10;0.00;;;3.20;86.00;;;;;;6168452;23;20384;-90
2021/01/25 03:03:24;;;;;;;0.00;0.00;;;3.20;86.00;;;;;;6191645;23;20000;-90
2021/01/25 03:05:51;;;;;;;0.00;0.00;;;3.20;86.10;;;;;;6164998;23;20001;-90
2021/01/25 03:08:17;;;;;;;0.00;0.00;;;3.10;86.10;;;;;;6216077;23;20008;-89
2021/01/25 03:10:47;;;;;;;0.57;0.17;;;3.10;86.10;;;;;;6220278;23;20384;-90
2021/01/25 03:13:13;;;;;;;0.00;0.00;;;3.10;86.10;;;;;;6194290;23;20000;-89
2021/01/25 03:15:39;;;;;;;0.33;0.00;;;3.10;86.10;;;;;;6216373;23;20051;-91
2021/01/25 03:18:06;;;;;;;0.00;0.00;;;3.10;86.10;;;;;;6193401;23;20001;-91
2021/01/25 03:20:32;;;;;;;0.00;0.00;;;3.10;86.20;;;;;;6192292;23;20010;-89
2021/01/25 03:22:59;;;;;;;0.00;0.00;;;3.10;86.20;;;;;;6218159;23;20000;-92
2021/01/25 03:25:25;;;;;;;0.77;0.20;;;3.10;86.20;;;;;;6192484;23;20001;-90
2021/01/25 03:27:51;;;;;;;0.00;0.00;;;3.00;86.10;;;;;;6218358;23;20000;-90
2021/01/25 03:30:18;;;;;;;0.93;0.47;;;3.10;86.20;;;;;;6218365;23;19997;-90
2021/01/25 03:32:44;;;;;;;0.00;0.00;;;3.00;86.10;;;;;;6193217;23;19993;-89
2021/01/25 03:35:11;;;;;;;0.00;0.00;;;3.10;86.10;;;;;;6219588;23;20016;-85
2021/01/25 03:37:38;;;;;;;0.00;0.00;;;3.10;86.10;;;;;;6219599;23;19997;-88
2021/01/25 03:40:08;;;;;;;0.00;0.00;;;3.10;86.00;;;;;;6221113;23;20016;-91
2021/01/25 03:42:34;;;;;;;0.00;0.00;;;3.10;86.00;;;;;;6224353;23;20000;-90
2021/01/25 03:45:01;;;;;;;1.00;0.27;;;3.00;85.90;;;;;;6239001;23;20011;-89
2021/01/25 03:47:27;;;;;;;0.00;0.00;;;3.10;85.90;;;;;;6216031;23;20016;-88
2021/01/25 03:49:53;;;;;;;0.00;0.00;;;3.10;85.90;;;;;;6275537;23;20047;-89
2021/01/25 03:52:20;;;;;;;0.00;0.00;;;3.00;85.80;;;;;;6220809;23;19994;-89
2021/01/25 03:54:46;;;;;;;0.00;0.00;;;3.00;85.80;;;;;;6273724;23;19991;-89
2021/01/25 03:57:12;;;;;;;0.00;0.00;;;3.00;85.90;;;;;;6276340;22;20046;-89
2021/01/25 03:59:39;;;;;;;0.00;0.00;;;3.00;85.80;;;;;;6246640;22;20072;-88
2021/01/25 04:02:05;;;;;;;0.00;0.00;;;3.00;85.90;;;;;;6246557;23;20055;-89
2021/01/25 04:04:32;;;;;;;0.33;0.00;;;3.00;85.90;;;;;;6223856;22;20044;-87
2021/01/25 04:06:58;;;;;;;0.00;0.00;;;3.00;85.90;;;;;;6272044;22;20127;-87
2021/01/25 04:09:25;;;;;;;0.00;0.00;;;3.00;85.90;;;;;;6211266;23;20001;-89
2021/01/25 04:11:51;;;;;;;0.00;0.00;;;3.00;85.90;;;;;;6226047;23;19992;-89
2021/01/25 04:14:17;;;;;;;0.00;0.00;;;3.00;85.90;;;;;;6208843;23;20224;-90
2021/01/25 04:16:44;;;;;;;0.00;0.00;;;3.00;86.00;;;;;;6262773;23;20058;-90
2021/01/25 04:19:10;;;;;;;0.00;0.00;;;3.00;85.90;;;;;;6226042;23;20256;-90
2021/01/25 04:21:36;;;;;;;0.87;0.60;;;2.90;86.00;;;;;;6222655;23;20001;-90
2021/01/25 04:24:03;;;;;;;0.00;0.00;;;2.90;86.10;;;;;;6249575;23;19993;-89
2021/01/25 04:26:29;;;;;;;0.73;0.30;;;2.90;86.20;;;;;;6247576;23;20004;-84
2021/01/25 04:28:55;;;;;;;0.00;0.00;;;2.90;86.10;;;;;;6223192;23;20000;-89
2021/01/25 04:31:22;;;;;;;0.00;0.00;;;2.90;86.10;;;;;;6246407;23;20257;-90
2021/01/25 04:33:48;;;;;;;0.30;0.20;;;2.90;86.00;;;;;;6221335;23;20004;-89
2021/01/25 04:36:14;;;;;;;0.00;0.00;;;2.90;86.00;;;;;;6221663;23;19997;-89
2021/01/25 04:38:40;;;;;;;0.00;0.00;;;2.90;86.00;;;;;;6247690;23;20043;-90
2021/01/25 04:41:07;;;;;;;0.10;0.10;;;2.90;86.00;;;;;;6223873;23;19996;-90
2021/01/25 04:43:33;;;;;;;0.40;0.10;;;2.90;86.10;;;;;;6225467;23;20000;-89
2021/01/25 04:46:00;;;;;;;0.00;0.00;;;2.80;86.10;;;;;;6197201;23;20001;-90
2021/01/25 04:48:26;;;;;;;0.00;0.00;;;2.80;86.10;;;;;;6216478;23;20012;-90
2021/01/25 04:50:56;;;;;;;0.00;0.00;;;2.80;86.30;;;;;;6218144;23;19997;-89
2021/01/25 04:53:22;;;;;;;0.00;0.00;;;2.70;86.20;;;;;;6193176;23;19997;-90
2021/01/25 04:55:49;;;;;;;0.00;0.00;;;2.70;86.40;;;;;;6168661;23;20296;-92
2021/01/25 04:58:16;;;;;;;0.00;0.00;;;2.70;86.40;;;;;;6193557;23;20008;-91
2021/01/25 05:00:42;;;;;;;0.10;0.10;;;2.70;86.50;;;;;;6217906;23;20052;-89
2021/01/25 05:03:08;;;;;;;0.10;0.10;;;2.60;86.40;;;;;;6219791;23;20395;-91
2021/01/25 05:05:35;;;;;;;0.00;0.00;;;2.60;86.40;;;;;;6218366;23;19997;-90
2021/01/25 05:08:01;;;;;;;0.00;0.00;;;2.70;86.50;;;;;;6218972;23;20008;-91
2021/01/25 05:10:27;;;;;;;0.00;0.00;;;2.60;86.40;;;;;;6218442;23;20000;-90
2021/01/25 05:12:54;;;;;;;0.00;0.00;;;2.60;86.40;;;;;;6194966;23;20003;-92
2021/01/25 05:15:30;;;;;;;0.20;0.10;;;2.60;86.50;;;;;;6217473;23;20023;-90
2021/01/25 05:18:00;;;;;;;0.10;0.10;;;2.60;86.50;;;;;;6218361;23;20384;-90
2021/01/25 05:20:30;;;;;;;0.00;0.00;;;2.60;86.50;;;;;;6219909;23;20359;-84
2021/01/25 05:22:58;;;;;;;6.65;0.30;;;2.60;86.60;;;;;;6217778;23;19993;-83
2021/01/25 05:25:27;;;;;;;0.00;0.00;;;2.50;86.50;;;;;;6215751;23;19997;-90
2021/01/25 05:27:54;;;;;;;0.57;0.13;;;2.60;86.50;;;;;;6218075;23;20000;-90
2021/01/25 05:30:20;;;;;;;0.00;0.00;;;2.60;86.40;;;;;;6219076;23;20019;-90
2021/01/25 05:32:57;;;;;;;0.00;0.00;;;2.60;86.40;;;;;;6219459;23;19993;-90
2021/01/25 05:35:33;;;;;;;0.00;0.00;;;2.60;86.40;;;;;;6218197;23;20005;-90
2021/01/25 05:38:04;;;;;;;0.00;0.00;;;2.60;86.40;;;;;;6220286;23;20000;-91
2021/01/25 05:40:34;;;;;;;0.00;0.00;;;2.60;86.30;;;;;;6193943;23;19999;-92
2021/01/25 05:43:01;;;;;;;0.00;0.00;;;2.60;86.40;;;;;;6217783;23;20028;-90
2021/01/25 05:45:28;;;;;;;0.00;0.00;;;2.60;86.30;;;;;;6166172;23;20024;-85
2021/01/25 05:47:56;;;;;;;0.13;0.00;;;2.50;86.40;;;;;;6217226;23;20280;-83
2021/01/25 05:50:36;;;;;;;0.00;0.00;;;2.60;86.40;;;;;;6218302;23;20412;-90
2021/01/25 05:53:06;;;;;;;0.00;0.00;;;2.60;86.40;;;;;;6220692;23;20000;-91
2021/01/25 05:55:32;;;;;;;0.00;0.00;;;2.60;86.40;;;;;;6192077;23;20016;-90
2021/01/25 05:57:59;;;;;;;0.00;0.00;;;2.60;86.30;;;;;;6219746;23;20000;-90
2021/01/25 06:00:26;;;;;;;0.00;0.00;;;2.60;86.30;;;;;;6217462;23;19997;-88
2021/01/25 06:02:52;;;;;;;0.00;0.00;;;2.60;86.20;;;;;;6215707;23;20003;-84
2021/01/25 06:05:32;;;;;;;1.00;0.40;;;2.60;86.20;;;;;;6218670;23;20000;-91
2021/01/25 06:08:14;;;;;;;0.00;0.00;;;2.60;86.20;;;;;;6221477;23;20005;-85
2021/01/25 06:11:06;;;;;;;0.00;0.00;;;2.60;86.20;;;;;;6198954;23;20000;-93
2021/01/25 06:13:39;;;;;;;0.00;0.00;;;2.60;86.10;;;;;;6230905;23;20011;-87
2021/01/25 06:16:09;;;;;;;0.00;0.00;;;2.60;86.10;;;;;;6233488;23;20016;-91
2021/01/25 06:18:35;;;;;;;0.40;0.10;;;2.70;86.00;;;;;;6180710;23;20005;-91
2021/01/25 06:21:01;;;;;;;0.00;0.00;;;2.70;86.00;;;;;;6203300;23;20000;-87
2021/01/25 06:23:28;;;;;;;0.00;0.00;;;2.70;85.80;;;;;;6213760;23;20003;-87
2021/01/25 06:25:54;;;;;;;0.30;0.20;;;2.80;85.70;;;;;;6211638;23;20007;-88
2021/01/25 06:28:21;;;;;;;0.00;0.00;;;2.90;85.60;;;;;;6195239;23;20000;-92
2021/01/25 06:30:47;;;;;;;0.20;0.10;;;2.90;85.50;;;;;;6218923;23;20009;-87
2021/01/25 06:33:15;;;;;;;0.83;0.30;;;2.90;85.50;;;;;;6170626;23;20000;-91
2021/01/25 06:35:45;;;;;;;0.20;0.00;;;2.90;85.40;;;;;;6220453;23;20005;-92
2021/01/25 06:38:16;;;;;;;0.00;0.00;;;2.90;85.50;;;;;;6223750;23;20005;-94
2021/01/25 06:40:43;;;;;;;0.00;0.00;;;2.90;85.50;;;;;;6200905;23;20001;-93
2021/01/25 06:43:11;;;;;;;0.00;0.00;;;2.90;85.50;;;;;;6227424;23;19997;-92
2021/01/25 06:45:38;;;;;;;0.17;0.00;;;2.90;85.50;;;;;;6199438;23;20019;-94
2021/01/25 06:48:07;;;;;;;0.30;0.20;;;2.90;85.50;;;;;;6202909;23;20016;-94
2021/01/25 06:50:35;;;;;;;0.00;0.00;;;2.90;85.40;;;;;;6201797;23;20000;-92
2021/01/25 06:53:03;;;;;;;0.30;0.03;;;2.90;85.40;;;;;;6175986;23;20000;-92
2021/01/25 06:55:35;;;;;;;0.00;0.00;;;3.00;85.40;;;;;;6209380;23;20007;-90
2021/01/25 06:58:05;;;;;;;0.00;0.00;;;3.00;85.40;;;;;;6225748;23;19997;-92
2021/01/25 07:00:34;;;;;;;0.00;0.00;;;3.00;85.40;;;;;;6199036;23;20384;-93
2021/01/25 07:03:03;;;;;;;0.03;0.00;;;2.90;85.40;;;;;;6206663;23;19996;-94
2021/01/25 07:05:37;;;;;;;0.00;0.00;;;2.90;85.50;;;;;;6179755;23;19996;-93
2021/01/25 07:08:17;;;;;;;0.00;0.00;;;2.90;85.70;;;;;;6181633;23;20015;-93
2021/01/25 07:11:03;;;;;;;0.10;0.10;;;2.90;85.90;;;;;;6203879;23;20007;-92
2021/01/25 07:13:34;;;;;;;0.00;0.00;;;2.80;86.10;;;;;;6229338;23;20387;-92
2021/01/25 07:16:00;;;;;;;;;;;2.70;86.20;;;;;;6198709;23;20008;-94
2021/01/25 07:18:27;;;;;;;0.00;0.00;;;2.60;86.30;;;;;;6198218;23;20171;-92
2021/01/25 07:20:55;;;;;;;0.00;0.00;;;2.60;86.40;;;;;;6201014;23;20007;-94
2021/01/25 07:23:23;;;;;;;0.00;0.00;;;2.50;86.50;;;;;;6197301;23;20004;-94
2021/01/25 07:25:59;;;;;;;0.00;0.00;;;2.50;86.60;;;;;;6171436;23;20052;-94
2021/01/25 07:28:29;;;;;;;0.00;0.00;;;2.50;86.80;;;;;;6199636;23;20001;-94
2021/01/25 07:30:55;;;;;;;0.63;0.20;;;2.40;86.90;;;;;;6225321;23;20281;-93
2021/01/25 07:33:22;;;;;;;0.00;0.00;;;2.40;86.90;;;;;;6221442;23;20009;-93
2021/01/25 07:35:49;;;;;;;0.00;0.00;;;2.40;87.00;;;;;;6170093;23;20011;-93
2021/01/25 07:38:28;;;;;;;0.00;0.00;;;2.30;87.00;;;;;;6174449;23;20004;-94
2021/01/25 07:40:58;;;;;;;0.00;0.00;;;2.30;87.00;;;;;;6179663;23;20005;-94
2021/01/25 07:43:26;;;;;;;0.55;0.35;;;2.30;87.10;;;;;;6206696;23;20007;-94
2021/01/25 07:45:54;;;;;;;0.00;0.00;;;2.30;87.10;;;;;;6223478;23;20004;-93
2021/01/25 07:48:21;;;;;;;0.00;0.00;;;2.30;87.00;;;;;;6207575;23;20020;-93
2021/01/25 07:50:54;;;;;;;0.00;0.00;;;2.30;87.00;;;;;;6206062;23;20376;-93
2021/01/25 07:53:21;;;;;;;0.00;0.00;;;2.30;87.10;;;;;;6183636;23;20008;-93
2021/01/25 07:55:50;;;;;;;0.00;0.00;;;2.30;87.10;;;;;;6177552;23;20409;-92
2021/01/25 07:58:17;;;;;;;0.00;0.00;;;2.30;87.20;;;;;;6176875;23;20004;-93
2021/01/25 08:00:43;;;;;;;0.00;0.00;;;2.30;87.20;;;;;;6226308;22;20023;-93
2021/01/25 08:03:14;;;;;;;0.40;0.20;;;2.30;87.20;;;;;;6177562;23;19996;-92
2021/01/25 08:05:41;;;;;;;0.00;0.00;;;2.20;87.20;;;;;;6180245;23;20007;-93
2021/01/25 08:08:09;;;;;;;0.00;0.00;;;2.20;87.30;;;;;;6203049;23;20000;-91
2021/01/25 08:10:58;;;;;;;0.37;0.20;;;2.20;87.30;;;;;;6176040;23;20248;-92
2021/01/25 08:13:36;;;;;;;0.00;0.00;;;2.30;87.30;;;;;;6230594;23;19992;-93
2021/01/25 08:16:12;;;;;;;0.00;0.00;;;2.30;87.20;;;;;;6178052;23;20003;-93
2021/01/25 08:18:54;;;;;;;0.00;0.00;;;2.30;87.00;;;;;;6180938;23;20004;-94
2021/01/25 08:21:27;;;;;;;2.57;1.40;;;2.40;87.00;;;;;;6228091;23;19996;-93
2021/01/25 08:23:53;;;;;;;0.30;0.03;;;2.40;86.90;;;;;;6234564;23;20010;-92
2021/01/25 08:26:23;;;;;;;0.20;0.20;;;2.40;86.90;;;;;;6234832;23;19992;-93
2021/01/25 08:28:56;;;;;;;0.00;0.00;;;2.40;86.80;;;;;;6207622;23;20002;-93
2021/01/25 08:31:49;;;;;;;4.63;0.57;;;2.40;86.70;;;;;;6182679;23;20016;-93
2021/01/25 08:34:27;;;;;;;0.20;0.10;;;2.40;86.60;;;;;;6226223;23;20012;-92
2021/01/25 08:37:07;;;;;;;0.00;0.00;;;2.70;86.50;;;;;;6257655;23;19988;-93
2021/01/25 08:39:44;;;;;;;0.00;0.00;;;3.00;85.70;;;;;;6229430;23;19996;-92
2021/01/25 08:42:19;;;;;;;0.20;0.20;;;3.40;84.40;;;;;;6204924;23;19996;-89
2021/01/25 08:44:53;;;;;;;0.10;0.00;;;3.50;83.80;;;;;;6230180;23;19996;-93
2021/01/25 08:47:28;;;;;;;0.67;0.20;;;3.40;83.80;;;;;;6206231;23;20005;-93
2021/01/25 08:49:54;;;;;;;0.20;0.00;;;3.30;84.20;;;;;;6201067;23;20199;-91
2021/01/25 08:52:27;;;;;;;0.20;0.10;;;3.20;84.50;;;;;;6203127;23;20003;-93
2021/01/25 08:55:07;;;;;;;0.00;0.00;;;3.20;84.70;;;;;;6196763;23;20001;-93
2021/01/25 08:57:38;;;;;;;0.00;0.00;;;3.30;84.80;;;;;;6196338;23;20003;-93
2021/01/25 09:00:09;;;;;;;0.00;0.00;;;3.30;84.80;;;;;;6180471;23;20004;-92
2021/01/25 09:02:36;;;;;;;;;;;3.40;84.70;;;;;;6171409;23;20380;-93
2021/01/25 09:05:02;;;;;;;0.00;0.00;;;3.40;84.50;;;;;;6197259;23;19948;-92
2021/01/25 09:07:28;;;;;;;0.00;0.00;;;3.50;84.30;;;;;;6197290;23;19997;-91
2021/01/25 09:09:55;;;;;;;0.00;0.00;;;3.60;84.10;;;;;;6195598;23;20003;-92
2021/01/25 09:12:21;;;;;;;0.00;0.00;;;3.70;83.90;;;;;;6198021;23;19996;-89
2021/01/25 09:14:48;;;;;;;11.07;0.53;;;3.70;83.90;;;;;;6199702;23;20011;-93
2021/01/25 09:17:15;;;;;;;0.00;0.00;;;3.70;83.80;;;;;;6199325;23;20019;-93
2021/01/25 09:19:41;;;;;;;0.00;0.00;;;3.80;83.90;;;;;;6175848;23;20004;-91
2021/01/25 09:22:09;;;;;;;0.03;0.00;;;3.80;83.90;;;;;;6200104;23;19997;-90
2021/01/25 09:24:38;;;;;;;0.10;0.00;;;3.80;83.90;;;;;;6176134;23;20007;-93
2021/01/25 09:27:05;;;;;;;0.00;0.00;;;3.90;83.90;;;;;;6176022;23;20007;-92
2021/01/25 09:29:32;;;;;;;0.20;0.20;;;4.00;83.80;;;;;;6202580;23;20001;-91
2021/01/25 09:31:58;;;;;;;3.50;0.30;;;4.20;83.40;;;;;;6199424;23;20407;-93
2021/01/25 09:34:36;;;;;;;0.10;0.00;;;4.70;82.10;;;;;;6200111;23;20020;-91
2021/01/25 09:37:09;;;;;;;0.10;0.00;;;5.20;80.50;;;;;;6197478;23;20000;-92
2021/01/25 09:39:38;;;;;;;0.00;0.00;;;5.60;79.30;;;;;;6174847;23;20020;-94
2021/01/25 09:42:05;;;;;;;3.03;0.10;;;5.90;78.60;;;;;;6201712;23;20001;-92
2021/01/25 09:44:33;;;;;;;0.10;0.00;;;5.90;78.60;;;;;;6203589;23;20003;-90
2021/01/25 09:46:59;;;;;;;0.10;0.10;;;5.90;78.50;;;;;;6200692;23;20008;-93
2021/01/25 09:49:26;;;;;;;0.10;0.00;;;6.00;79.00;;;;;;6220148;23;20402;-94
2021/01/25 09:51:52;;;;;;;0.00;0.00;;;5.90;79.30;;;;;;6198097;23;20007;-93
2021/01/25 09:54:18;;;;;;;0.00;0.00;;;6.10;79.20;;;;;;6172869;23;20007;-94
2021/01/25 09:56:45;;;;;;;1.33;0.10;;;6.40;78.40;;;;;;6221440;23;20000;-93
2021/01/25 09:59:11;;;;;;;0.93;0.47;;;6.60;78.30;;;;;;6169774;23;20004;-93
2021/01/25 10:01:38;;;;;;;0.40;0.17;;;6.70;78.10;;;;;;6196864;23;20005;-93
2021/01/25 10:04:04;;;;;;;0.00;0.00;;;6.70;78.10;;;;;;6220607;23;20305;-94
2021/01/25 10:06:31;;;;;;;0.77;0.40;;;6.60;78.50;;;;;;6195073;23;20001;-94
2021/01/25 10:08:57;;;;;;;0.83;0.20;;;6.60;78.60;;;;;;6191685;23;20285;-94
2021/01/25 10:11:24;;;;;;;0.20;0.00;;;6.60;78.70;;;;;;6218099;23;20054;-93
2021/01/25 10:14:22;;;;;;;0.00;0.00;;;6.60;78.80;;;;;;6216848;23;20005;-92
2021/01/25 10:19:32;;;;;;;0.10;0.10;;;6.60;79.20;;;;;;6179632;23;20011;-94
2021/01/25 10:21:58;;;;;;;0.10;0.00;;;6.70;79.40;;;;;;6218315;23;19997;-90
2021/01/25 10:24:25;;;;;;;0.83;0.43;;;6.70;79.30;;;;;;6219123;23;20100;-93
2021/01/25 10:26:51;;;;;;;0.00;0.00;;;6.70;79.20;;;;;;6218975;23;19993;-95
2021/01/25 10:29:18;;;;;;;0.00;0.00;;;6.70;79.10;;;;;;6218068;23;20016;-93
2021/01/25 10:31:44;;;;;;;0.43;0.27;;;6.60;79.40;;;;;;6220481;23;20013;-93
2021/01/25 10:34:10;;;;;;;0.00;0.00;;;6.60;79.80;;;;;;6195647;23;20000;-89
2021/01/25 10:36:40;;;;;;;0.00;0.00;;;6.60;79.70;;;;;;6218201;23;20272;-94
2021/01/25 10:39:06;;;;;;;0.70;0.13;;;6.60;79.80;;;;;;6194391;23;20019;-93
2021/01/25 10:41:32;;;;;;;1.23;0.43;;;6.60;79.80;;;;;;6226598;23;19993;-93
2021/01/25 10:43:59;;;;;;;0.83;0.30;;;6.80;79.70;;;;;;6198594;23;20003;-91
2021/01/25 10:46:25;;;;;;;0.10;0.10;;;6.90;79.40;;;;;;6197261;23;20280;-92
2021/01/25 10:48:51;;;;;;;0.00;0.00;;;7.10;79.10;;;;;;6216151;23;20020;-92
2021/01/25 10:51:18;;;;;;;1.10;0.27;;;7.10;78.80;;;;;;6248483;23;20000;-94
2021/01/25 10:53:49;;;;;;;4.67;0.50;;;7.20;78.80;;;;;;6249154;23;20256;-91
2021/01/25 10:56:16;;;;;;;0.07;0.07;;;7.10;78.70;;;;;;6200079;23;20553;-94
2021/01/25 10:58:42;;;;;;;0.00;0.00;;;7.10;78.80;;;;;;6172839;23;20023;-82
2021/01/25 11:01:09;;;;;;;0.20;0.10;;;7.00;78.90;;;;;;6223215;23;20012;-92
2021/01/25 11:03:36;;;;;;;0.00;0.00;;;6.90;79.20;;;;;;6198004;23;20007;-93
2021/01/25 11:06:16;;;;;;;0.00;0.00;;;7.00;80.10;;;;;;6173533;23;20000;-94
2021/01/25 11:08:42;;;;;;;0.00;0.00;;;7.10;79.10;;;;;;6197421;23;20012;-94
2021/01/25 11:11:09;;;;;;;0.20;0.20;;;7.10;78.80;;;;;;6196873;23;20268;-92
2021/01/25 11:13:36;;;;;;;0.10;0.10;;;7.20;78.70;;;;;;6199068;23;20325;-94
2021/01/25 11:16:02;;;;;;;0.10;0.10;;;7.40;78.60;;;;;;6199861;23;20392;-93
2021/01/25 11:18:28;;;;;;;0.20;0.10;;;7.40;78.20;;;;;;6202206;23;20004;-90
2021/01/25 11:20:58;;;;;;;0.20;0.20;;;7.40;78.20;;;;;;6181797;23;20303;-92
2021/01/25 11:23:25;;;;;;;0.47;0.23;;;7.50;78.10;;;;;;6201495;23;20008;-93
2021/01/25 11:25:51;;;;;;;0.00;0.00;;;7.50;78.00;;;;;;6226452;23;19997;-92
2021/01/25 11:43:38;;;;;;;;;;;;;;;;;;;;;
2021/01/25 11:50:25;;;;;;;0.00;0.00;;;8.10;76.60;;;;;;6029062;23;19925;-93
2021/01/25 12:14:24;;;;;;;0.33;0.10;;;8.20;76.00;;;;;;6235918;22;20021;-92
2021/01/25 12:17:04;;;;;;;0.17;0.10;;;8.20;75.90;;;;;;6204122;23;20391;-89
2021/01/25 12:19:31;;;;;;;0.30;0.10;;;8.20;75.70;;;;;;6170784;23;20011;-89
2021/01/25 12:21:57;;;;;;;0.10;0.07;;;8.20;75.50;;;;;;6220925;23;20000;-89
2021/01/25 12:24:23;;;;;;;0.47;0.00;;;8.20;75.50;;;;;;6248166;23;20004;-88
2021/01/25 12:26:50;;;;;;;0.00;0.00;;;8.30;75.10;;;;;;6171677;23;20368;-91
2021/01/25 12:29:17;;;;;;;0.00;0.00;;;8.40;74.80;;;;;;6196510;23;20380;-91
2021/01/25 12:31:50;;;;;;;0.20;0.10;;;8.50;74.90;;;;;;6171676;23;20009;-91
2021/01/25 12:34:17;;;;;;;0.00;0.00;;;8.60;74.70;;;;;;6196015;23;20011;-89
2021/01/25 12:36:43;;;;;;;1.40;0.47;;;8.60;74.00;;;;;;6219083;23;20412;-90
2021/01/25 12:39:09;;;;;;;0.00;0.00;;;8.50;73.90;;;;;;6246745;23;20005;-88
2021/01/25 12:41:37;;;;;;;0.60;0.30;;;8.50;74.10;;;;;;6196145;23;19992;-89
2021/01/25 12:44:03;;;;;;;0.08;0.08;;;8.50;74.20;;;;;;6219986;23;20260;-90
2021/01/25 12:46:34;;;;;;;0.00;0.00;;;8.50;73.70;;;;;;6191814;23;20011;-89
2021/01/25 12:49:02;;;;;;;0.10;0.00;;;8.50;73.90;;;;;;6195538;23;19997;-90
2021/01/25 12:51:28;;;;;;;0.00;0.00;;;8.50;73.70;;;;;;6195350;23;20509;-89
2021/01/25 12:53:55;;;;;;;0.33;0.20;;;8.50;73.50;;;;;;6248452;23;20371;-90
2021/01/25 12:56:21;;;;;;;0.90;0.20;;;8.50;73.50;;;;;;6226558;23;19992;-89
2021/01/25 12:58:47;;;;;;;1.50;0.13;;;8.50;73.80;;;;;;6229210;23;20011;-90
2021/01/25 13:01:14;;;;;;;0.00;0.00;;;8.60;73.60;;;;;;6247288;23;20005;-92
2021/01/25 13:03:43;;;;;;;0.20;0.00;;;8.60;73.30;;;;;;6197617;23;20003;-91
2021/01/25 13:06:10;;;;;;;0.25;0.25;;;8.60;73.30;;;;;;6223407;23;19992;-91
2021/01/25 13:08:37;;;;;;;0.00;0.00;;;8.70;73.40;;;;;;6196921;23;20288;-93
2021/01/25 13:11:03;;;;;;;0.00;0.00;;;8.80;73.20;;;;;;6221893;23;20015;-93
2021/01/25 13:13:30;;;;;;;3.10;0.20;;;8.80;73.10;;;;;;6172273;23;20023;-91
2021/01/25 13:16:04;;;;;;;0.17;0.17;;;8.80;73.40;;;;;;6195998;23;20008;-90
2021/01/25 13:18:30;;;;;;;0.00;0.00;;;9.00;73.20;;;;;;6195947;23;20004;-89
2021/01/25 13:20:56;;;;;;;0.00;0.00;;;9.00;72.90;;;;;;6247537;23;20000;-87
2021/01/25 13:23:23;;;;;;;1.55;0.20;;;9.00;72.70;;;;;;6198674;23;20007;-89
2021/01/25 13:25:49;;;;;;;0.00;0.00;;;8.80;73.00;;;;;;6197948;23;20003;-91
2021/01/25 13:28:15;;;;;;;0.00;0.00;;;8.70;73.50;;;;;;6173140;23;20000;-89
2021/01/25 13:30:42;;;;;;;0.65;0.10;;;8.50;73.90;;;;;;6220583;23;20031;-90
2021/01/25 13:33:08;;;;;;;0.10;0.08;;;8.50;73.80;;;;;;6250480;23;20007;-90
2021/01/25 13:35:35;;;;;;;2.47;0.45;;;8.50;73.70;;;;;;6198467;23;19996;-91
2021/01/25 13:38:01;;;;;;;0.00;0.00;;;8.60;73.50;;;;;;6227357;23;20006;-91
2021/01/25 13:40:28;;;;;;;0.10;0.10;;;8.60;73.30;;;;;;6226828;23;20007;-91
2021/01/25 13:42:55;;;;;;;0.52;0.28;;;8.60;73.30;;;;;;6249409;23;20006;-90
2021/01/25 13:49:29;;;;;;;0.22;0.22;;;8.50;73.50;;;;;;6225906;23;20004;-94
2021/01/25 14:02:33;;;;;;;3.22;0.60;;;8.70;72.60;;;;;;6189202;23;20035;-91